createdAt,value
2018-03-26T00:00:17.832Z,9.87
2018-03-26T00:01:23.640Z,9.85
2018-03-26T00:02:29.607Z,9.88
2018-03-26T00:03:35.332Z,9.88
2018-03-26T00:04:41.882Z,9.90
2018-03-26T00:05:47.664Z,9.91
2018-03-26T00:06:53.445Z,9.92
2018-03-26T00:07:59.221Z,9.88
2018-03-26T00:09:04.836Z,9.89
2018-03-26T00:10:11.378Z,9.87
2018-03-26T00:11:17.189Z,9.86
2018-03-26T00:12:23.025Z,9.85
2018-03-26T00:13:28.865Z,9.85
2018-03-26T00:14:34.723Z,9.86
2018-03-26T00:15:40.487Z,9.84
2018-03-26T00:16:46.243Z,9.83
2018-03-26T00:17:52.002Z,9.80
2018-03-26T00:18:58.553Z,9.83
2018-03-26T00:20:04.263Z,9.81
2018-03-26T00:21:10.014Z,9.80
2018-03-26T00:22:15.820Z,9.76
2018-03-26T00:23:21.560Z,9.73
2018-03-26T00:24:27.314Z,9.70
2018-03-26T00:25:33.080Z,9.68
2018-03-26T00:26:38.797Z,9.68
2018-03-26T00:27:44.548Z,9.72
2018-03-26T00:28:50.370Z,9.69
2018-03-26T00:29:56.281Z,9.67
2018-03-26T00:31:02.788Z,9.67
2018-03-26T00:32:08.577Z,9.66
2018-03-26T00:33:15.068Z,9.66
2018-03-26T00:34:20.786Z,9.60
2018-03-26T00:35:26.589Z,9.61
2018-03-26T00:36:32.313Z,9.55
2018-03-26T00:37:38.029Z,9.55
2018-03-26T00:38:43.743Z,9.54
2018-03-26T00:39:50.229Z,9.56
2018-03-26T00:40:55.956Z,9.58
2018-03-26T00:42:02.449Z,9.58
2018-03-26T00:43:08.178Z,9.59
2018-03-26T00:44:13.901Z,9.58
2018-03-26T00:45:19.627Z,9.57
2018-03-26T00:46:26.121Z,9.54
2018-03-26T00:47:31.833Z,9.57
2018-03-26T00:48:38.313Z,9.56
2018-03-26T00:49:44.021Z,9.55
2018-03-26T00:50:50.501Z,9.55
2018-03-26T00:51:57.017Z,9.56
2018-03-26T00:53:02.720Z,9.58
2018-03-26T00:54:08.492Z,9.56
2018-03-26T00:55:14.209Z,9.56
2018-03-26T00:56:19.935Z,9.54
2018-03-26T00:57:25.681Z,9.51
2018-03-26T00:58:31.400Z,9.50
2018-03-26T00:59:37.869Z,9.50
2018-03-26T01:00:43.580Z,9.51
2018-03-26T01:01:50.127Z,9.51
2018-03-26T01:02:56.452Z,9.47
2018-03-26T01:04:02.178Z,9.47
2018-03-26T01:05:07.908Z,9.44
2018-03-26T01:06:13.638Z,9.47
2018-03-26T01:07:20.115Z,9.47
2018-03-26T01:08:25.623Z,9.46
2018-03-26T01:09:32.207Z,9.50
2018-03-26T01:10:37.914Z,9.50
2018-03-26T01:11:43.627Z,9.47
2018-03-26T01:12:49.343Z,9.48
2018-03-26T01:13:55.087Z,9.49
2018-03-26T01:15:00.851Z,9.50
2018-03-26T01:16:06.570Z,9.48
2018-03-26T01:17:12.303Z,9.46
2018-03-26T01:18:18.090Z,9.45
2018-03-26T01:19:23.819Z,9.44
2018-03-26T01:20:29.521Z,9.45
2018-03-26T01:21:35.233Z,9.42
2018-03-26T01:22:41.713Z,9.41
2018-03-26T01:23:47.420Z,9.43
2018-03-26T01:24:53.934Z,9.42
2018-03-26T01:25:59.681Z,9.38
2018-03-26T01:27:05.061Z,9.36
2018-03-26T01:28:11.533Z,9.34
2018-03-26T01:29:17.237Z,9.34
2018-03-26T01:30:22.993Z,9.35
2018-03-26T01:31:29.477Z,9.33
2018-03-26T01:32:35.985Z,9.36
2018-03-26T01:33:41.693Z,9.35
2018-03-26T01:34:47.406Z,9.36
2018-03-26T01:35:53.908Z,9.35
2018-03-26T01:36:59.726Z,9.36
2018-03-26T01:38:05.097Z,9.39
2018-03-26T01:39:10.813Z,9.39
2018-03-26T01:40:16.521Z,9.40
2018-03-26T01:41:23.020Z,9.39
2018-03-26T01:42:28.744Z,9.41
2018-03-26T01:43:34.461Z,9.42
2018-03-26T01:44:40.938Z,9.42
2018-03-26T01:45:46.652Z,9.43
2018-03-26T01:46:53.186Z,9.39
2018-03-26T01:47:58.906Z,9.38
2018-03-26T01:49:04.630Z,9.34
2018-03-26T01:50:10.150Z,9.36
2018-03-26T01:51:15.860Z,9.37
2018-03-26T01:52:21.595Z,9.39
2018-03-26T01:53:27.383Z,9.42
2018-03-26T01:54:33.080Z,9.42
2018-03-26T01:55:38.793Z,9.44
2018-03-26T01:56:44.515Z,9.45
2018-03-26T01:57:50.269Z,9.41
2018-03-26T01:58:56.046Z,9.40
2018-03-26T02:00:01.759Z,9.43
2018-03-26T02:01:07.475Z,9.42
2018-03-26T02:02:13.189Z,9.43
2018-03-26T02:03:19.708Z,9.42
2018-03-26T02:04:25.403Z,9.42
2018-03-26T02:05:30.927Z,9.40
2018-03-26T02:06:37.409Z,9.40
2018-03-26T02:07:43.113Z,9.40
2018-03-26T02:08:49.607Z,9.42
2018-03-26T02:09:55.314Z,9.42
2018-03-26T02:11:01.809Z,9.42
2018-03-26T02:12:07.639Z,9.43
2018-03-26T02:13:13.340Z,9.44
2018-03-26T02:14:19.090Z,9.41
2018-03-26T02:15:24.807Z,9.40
2018-03-26T02:16:30.516Z,9.36
2018-03-26T02:17:36.230Z,9.35
2018-03-26T02:18:42.702Z,9.32
2018-03-26T02:19:48.453Z,9.34
2018-03-26T02:20:54.182Z,9.34
2018-03-26T02:21:59.916Z,9.32
2018-03-26T02:23:06.405Z,9.30
2018-03-26T02:24:12.118Z,9.31
2018-03-26T02:25:18.606Z,9.31
2018-03-26T02:26:24.324Z,9.34
2018-03-26T02:27:30.045Z,9.32
2018-03-26T02:28:36.539Z,9.32
2018-03-26T02:29:42.240Z,9.32
2018-03-26T02:30:48.752Z,9.30
2018-03-26T02:31:54.464Z,9.26
2018-03-26T02:33:00.187Z,9.24
2018-03-26T02:34:06.679Z,9.22
2018-03-26T02:35:13.160Z,9.22
2018-03-26T02:36:18.906Z,9.24
2018-03-26T02:37:24.604Z,9.21
2018-03-26T02:38:30.313Z,9.22
2018-03-26T02:39:36.825Z,9.22
2018-03-26T02:40:42.545Z,9.19
2018-03-26T02:41:49.093Z,9.20
2018-03-26T02:42:54.813Z,9.21
2018-03-26T02:44:00.541Z,9.21
2018-03-26T02:45:07.531Z,9.20
2018-03-26T02:46:13.458Z,9.17
2018-03-26T02:47:19.187Z,9.18
2018-03-26T02:48:24.902Z,9.17
2018-03-26T02:49:30.656Z,9.12
2018-03-26T02:50:36.366Z,9.10
2018-03-26T02:51:42.086Z,9.06
2018-03-26T02:52:48.614Z,9.08
2018-03-26T02:53:54.329Z,9.07
2018-03-26T02:55:00.050Z,9.05
2018-03-26T02:56:05.764Z,9.05
2018-03-26T02:57:12.259Z,9.03
2018-03-26T02:58:17.993Z,9.03
2018-03-26T02:59:23.714Z,9.05
2018-03-26T03:00:30.197Z,9.06
2018-03-26T03:01:35.702Z,9.03
2018-03-26T03:02:41.635Z,9.05
2018-03-26T03:03:48.178Z,9.10
2018-03-26T03:04:53.897Z,9.11
2018-03-26T03:05:59.600Z,9.13
2018-03-26T03:07:05.329Z,9.12
2018-03-26T03:08:11.810Z,9.10
2018-03-26T03:09:17.550Z,9.07
2018-03-26T03:10:23.284Z,9.09
2018-03-26T03:11:29.018Z,9.07
2018-03-26T03:12:34.750Z,9.02
2018-03-26T03:13:41.230Z,9.00
2018-03-26T03:14:46.952Z,9.01
2018-03-26T03:15:53.429Z,8.99
2018-03-26T03:16:59.146Z,9.00
2018-03-26T03:18:04.897Z,8.92
2018-03-26T03:19:11.377Z,8.93
2018-03-26T03:20:17.129Z,8.96
2018-03-26T03:21:22.828Z,8.96
2018-03-26T03:22:29.309Z,8.95
2018-03-26T03:23:35.023Z,8.97
2018-03-26T03:24:41.516Z,8.99
2018-03-26T03:25:47.500Z,8.99
2018-03-26T03:26:53.017Z,8.97
2018-03-26T03:27:58.732Z,8.99
2018-03-26T03:29:04.164Z,8.97
2018-03-26T03:30:09.880Z,8.99
2018-03-26T03:31:16.389Z,9.00
2018-03-26T03:32:22.115Z,9.01
2018-03-26T03:33:27.837Z,8.99
2018-03-26T03:34:33.556Z,9.02
2018-03-26T03:35:40.055Z,9.04
2018-03-26T03:36:45.779Z,9.02
2018-03-26T03:37:51.484Z,9.00
2018-03-26T03:38:57.201Z,8.99
2018-03-26T03:40:02.901Z,9.03
2018-03-26T03:41:08.629Z,9.06
2018-03-26T03:42:15.137Z,9.04
2018-03-26T03:43:20.844Z,9.05
2018-03-26T03:44:26.544Z,9.02
2018-03-26T03:45:32.273Z,9.02
2018-03-26T03:46:37.981Z,9.02
2018-03-26T03:47:43.730Z,9.02
2018-03-26T03:48:49.445Z,9.01
2018-03-26T03:49:55.158Z,9.01
2018-03-26T03:51:00.865Z,9.03
2018-03-26T03:52:06.568Z,9.07
2018-03-26T03:53:12.312Z,9.07
2018-03-26T03:54:17.876Z,9.06
2018-03-26T03:55:23.578Z,9.05
2018-03-26T03:56:30.055Z,9.07
2018-03-26T03:57:35.769Z,9.08
2018-03-26T03:58:42.263Z,9.08
2018-03-26T03:59:47.978Z,9.08
2018-03-26T04:00:53.693Z,9.08
2018-03-26T04:01:59.405Z,9.08
2018-03-26T04:03:04.802Z,9.08
2018-03-26T04:04:10.545Z,9.06
2018-03-26T04:05:16.255Z,9.05
2018-03-26T04:06:22.753Z,9.00
2018-03-26T04:07:28.466Z,8.98
2018-03-26T04:08:34.188Z,8.99
2018-03-26T04:09:39.937Z,9.03
2018-03-26T04:10:45.676Z,9.04
2018-03-26T04:11:52.154Z,9.05
2018-03-26T04:12:57.865Z,9.02
2018-03-26T04:14:03.576Z,9.04
2018-03-26T04:15:09.338Z,9.05
2018-03-26T04:16:15.175Z,9.04
2018-03-26T04:17:21.078Z,9.02
2018-03-26T04:18:26.936Z,8.99
2018-03-26T04:19:32.639Z,9.00
2018-03-26T04:20:38.815Z,9.02
2018-03-26T04:21:44.517Z,9.02
2018-03-26T04:22:51.015Z,9.02
2018-03-26T04:23:56.729Z,9.03
2018-03-26T04:25:03.261Z,9.04
2018-03-26T04:26:08.985Z,9.03
2018-03-26T04:27:14.727Z,9.02
2018-03-26T04:28:20.927Z,9.02
2018-03-26T04:29:27.408Z,9.00
2018-03-26T04:30:32.772Z,9.01
2018-03-26T04:31:38.498Z,8.97
2018-03-26T04:32:44.194Z,8.96
2018-03-26T04:33:50.680Z,8.93
2018-03-26T04:34:56.406Z,8.91
2018-03-26T04:36:02.116Z,8.87
2018-03-26T04:37:07.879Z,8.91
2018-03-26T04:38:13.593Z,8.85
2018-03-26T04:39:19.296Z,8.87
2018-03-26T04:40:25.000Z,8.90
2018-03-26T04:41:31.487Z,8.89
2018-03-26T04:42:37.215Z,8.91
2018-03-26T04:43:42.940Z,8.91
2018-03-26T04:44:50.397Z,8.93
2018-03-26T04:45:56.624Z,8.94
2018-03-26T04:47:02.347Z,8.95
2018-03-26T04:48:08.088Z,8.95
2018-03-26T04:49:13.788Z,8.95
2018-03-26T04:50:20.307Z,8.94
2018-03-26T04:51:26.967Z,8.95
2018-03-26T04:52:32.760Z,8.95
2018-03-26T04:53:39.276Z,8.96
2018-03-26T04:54:44.986Z,8.96
2018-03-26T04:55:50.717Z,8.97
2018-03-26T04:56:57.420Z,8.96
2018-03-26T04:58:03.165Z,8.95
2018-03-26T04:59:09.674Z,8.94
2018-03-26T05:00:15.401Z,8.94
2018-03-26T05:01:21.895Z,8.94
2018-03-26T05:02:27.635Z,8.93
2018-03-26T05:03:37.346Z,8.92
2018-03-26T05:04:43.117Z,8.92
2018-03-26T05:05:49.607Z,8.90
2018-03-26T05:06:55.329Z,8.91
2018-03-26T05:08:00.846Z,8.89
2018-03-26T05:09:05.650Z,8.89
2018-03-26T05:10:11.388Z,8.91
2018-03-26T05:11:16.908Z,8.92
2018-03-26T05:12:23.433Z,8.91
2018-03-26T05:13:29.147Z,8.92
2018-03-26T05:14:35.278Z,8.92
2018-03-26T05:15:41.018Z,8.92
2018-03-26T05:16:46.716Z,8.93
2018-03-26T05:17:52.417Z,8.95
2018-03-26T05:18:58.141Z,8.95
2018-03-26T05:20:03.834Z,8.93
2018-03-26T05:21:09.560Z,8.94
2018-03-26T05:22:15.277Z,8.92
2018-03-26T05:23:20.774Z,8.94
2018-03-26T05:24:27.279Z,8.96
2018-03-26T05:25:32.976Z,8.98
2018-03-26T05:26:39.512Z,8.99
2018-03-26T05:27:45.232Z,8.98
2018-03-26T05:28:50.945Z,8.99
2018-03-26T05:29:56.673Z,8.96
2018-03-26T05:31:03.208Z,8.98
2018-03-26T05:32:09.197Z,9.01
2018-03-26T05:33:14.950Z,9.02
2018-03-26T05:34:20.661Z,9.01
2018-03-26T05:35:26.374Z,9.05
2018-03-26T05:36:32.916Z,9.04
2018-03-26T05:37:38.639Z,9.04
2018-03-26T05:38:44.353Z,9.04
2018-03-26T05:39:50.065Z,9.06
2018-03-26T05:40:55.780Z,9.06
2018-03-26T05:42:01.773Z,9.10
2018-03-26T05:43:07.829Z,9.14
2018-03-26T05:44:14.964Z,9.16
2018-03-26T05:45:20.685Z,9.13
2018-03-26T05:46:26.476Z,9.16
2018-03-26T05:47:32.641Z,9.20
2018-03-26T05:48:38.366Z,9.19
2018-03-26T05:49:44.116Z,9.15
2018-03-26T05:50:49.840Z,9.16
2018-03-26T05:51:56.307Z,9.17
2018-03-26T05:53:02.031Z,9.20
2018-03-26T05:54:08.545Z,9.22
2018-03-26T05:55:14.249Z,9.23
2018-03-26T05:56:19.952Z,9.26
2018-03-26T05:57:25.659Z,9.26
2018-03-26T05:58:31.355Z,9.26
2018-03-26T05:59:37.828Z,9.29
2018-03-26T06:00:43.573Z,9.29
2018-03-26T06:01:49.276Z,9.29
2018-03-26T06:02:54.788Z,9.33
2018-03-26T06:04:00.488Z,9.38
2018-03-26T06:05:06.228Z,9.40
2018-03-26T06:06:11.621Z,9.43
2018-03-26T06:07:18.842Z,9.44
2018-03-26T06:08:24.541Z,9.46
2018-03-26T06:09:30.241Z,9.49
2018-03-26T06:10:35.975Z,9.50
2018-03-26T06:11:41.668Z,9.52
2018-03-26T06:12:48.171Z,9.55
2018-03-26T06:13:54.165Z,9.57
2018-03-26T06:15:00.354Z,9.57
2018-03-26T06:16:05.788Z,9.60
2018-03-26T06:17:15.872Z,9.63
2018-03-26T06:18:21.450Z,9.63
2018-03-26T06:19:27.766Z,9.64
2018-03-26T06:20:33.276Z,9.64
2018-03-26T06:21:38.822Z,9.62
2018-03-26T06:22:44.339Z,9.59
2018-03-26T06:23:49.852Z,9.59
2018-03-26T06:24:56.156Z,9.60
2018-03-26T06:26:01.900Z,9.57
2018-03-26T06:27:07.501Z,9.57
2018-03-26T06:28:13.768Z,9.54
2018-03-26T06:29:19.390Z,9.58
2018-03-26T06:30:24.909Z,9.63
2018-03-26T06:31:31.318Z,9.65
2018-03-26T06:32:36.921Z,9.66
2018-03-26T06:33:42.444Z,9.67
2018-03-26T06:34:48.724Z,9.68
2018-03-26T06:35:54.118Z,9.68
2018-03-26T06:38:52.356Z,9.74
2018-03-26T06:39:58.126Z,9.76
2018-03-26T06:41:03.692Z,9.78
2018-03-26T06:42:10.160Z,9.81
2018-03-26T06:43:15.884Z,9.85
2018-03-26T06:44:22.375Z,9.88
2018-03-26T06:45:28.081Z,9.88
2018-03-26T06:46:34.553Z,9.88
2018-03-26T06:47:40.252Z,9.90
2018-03-26T06:48:45.990Z,9.91
2018-03-26T06:49:51.776Z,9.89
2018-03-26T06:50:57.689Z,9.90
2018-03-26T06:52:04.586Z,9.91
2018-03-26T06:53:10.309Z,9.92
2018-03-26T06:54:16.785Z,9.92
2018-03-26T06:55:22.941Z,9.95
2018-03-26T06:56:28.664Z,9.97
2018-03-26T06:57:35.141Z,10.01
2018-03-26T06:58:40.868Z,10.02
2018-03-26T06:59:46.611Z,10.01
2018-03-26T07:00:53.104Z,10.03
2018-03-26T07:01:58.836Z,10.05
2018-03-26T07:03:04.565Z,10.08
2018-03-26T07:04:10.277Z,10.11
2018-03-26T07:05:16.761Z,10.14
2018-03-26T07:06:22.503Z,10.16
2018-03-26T07:07:28.204Z,10.17
2018-03-26T07:08:33.924Z,10.18
2018-03-26T07:09:39.622Z,10.19
2018-03-26T07:10:45.328Z,10.20
2018-03-26T07:11:51.073Z,10.22
2018-03-26T07:12:57.769Z,10.23
2018-03-26T07:14:03.488Z,10.24
2018-03-26T07:15:09.773Z,10.23
2018-03-26T07:16:15.668Z,10.22
2018-03-26T07:17:21.400Z,10.20
2018-03-26T07:18:27.878Z,10.17
2018-03-26T07:19:33.622Z,10.19
2018-03-26T07:20:39.333Z,10.22
2018-03-26T07:21:45.049Z,10.22
2018-03-26T07:22:50.773Z,10.24
2018-03-26T07:23:56.492Z,10.24
2018-03-26T07:25:02.215Z,10.24
2018-03-26T07:26:08.760Z,10.25
2018-03-26T07:27:14.529Z,10.29
2018-03-26T07:28:21.115Z,10.28
2018-03-26T07:29:26.832Z,10.32
2018-03-26T07:30:33.318Z,10.33
2018-03-26T07:31:39.035Z,10.31
2018-03-26T07:32:45.535Z,10.35
2018-03-26T07:33:51.296Z,10.38
2018-03-26T07:34:57.059Z,10.35
2018-03-26T07:36:02.780Z,10.40
2018-03-26T07:37:08.508Z,10.36
2018-03-26T07:38:14.220Z,10.39
2018-03-26T07:39:20.934Z,10.36
2018-03-26T07:40:26.658Z,10.40
2018-03-26T07:41:32.388Z,10.41
2018-03-26T07:42:38.208Z,10.46
2018-03-26T07:43:43.969Z,10.49
2018-03-26T07:44:49.709Z,10.50
2018-03-26T07:45:55.431Z,10.54
2018-03-26T07:47:01.171Z,10.56
2018-03-26T07:48:06.896Z,10.53
2018-03-26T07:49:14.110Z,10.50
2018-03-26T07:50:19.865Z,10.49
2018-03-26T07:51:25.574Z,10.49
2018-03-26T07:52:31.298Z,10.47
2018-03-26T07:53:37.850Z,10.47
2018-03-26T07:54:43.733Z,10.48
2018-03-26T07:55:49.461Z,10.49
2018-03-26T07:56:55.177Z,10.47
2018-03-26T07:58:01.667Z,10.48
2018-03-26T07:59:07.378Z,10.48
2018-03-26T08:00:13.662Z,10.46
2018-03-26T08:01:19.397Z,10.46
2018-03-26T08:02:25.104Z,10.45
2018-03-26T08:03:30.859Z,10.43
2018-03-26T08:04:37.324Z,10.40
2018-03-26T08:05:43.072Z,10.42
2018-03-26T08:06:48.472Z,10.44
2018-03-26T08:07:54.191Z,10.45
2018-03-26T08:08:59.884Z,10.46
2018-03-26T08:10:06.021Z,10.49
2018-03-26T08:11:12.305Z,10.52
2018-03-26T08:12:18.134Z,10.54
2018-03-26T08:13:23.501Z,10.56
2018-03-26T08:14:29.219Z,10.56
2018-03-26T08:15:34.932Z,10.58
2018-03-26T08:16:41.407Z,10.55
2018-03-26T08:17:47.121Z,10.50
2018-03-26T08:18:53.601Z,10.51
2018-03-26T08:19:59.320Z,10.57
2018-03-26T08:21:05.789Z,10.57
2018-03-26T08:22:12.313Z,10.60
2018-03-26T08:23:18.041Z,10.63
2018-03-26T08:24:23.760Z,10.65
2018-03-26T08:25:29.685Z,10.70
2018-03-26T08:26:36.162Z,10.73
2018-03-26T08:27:41.885Z,10.72
2018-03-26T08:28:47.608Z,10.78
2018-03-26T08:29:54.093Z,10.81
2018-03-26T08:30:59.868Z,10.84
2018-03-26T08:32:06.500Z,10.88
2018-03-26T08:33:12.208Z,10.92
2018-03-26T08:34:18.708Z,10.95
2018-03-26T08:35:24.492Z,10.96
2018-03-26T08:36:30.239Z,10.95
2018-03-26T08:37:36.149Z,10.95
2018-03-26T08:38:41.938Z,10.98
2018-03-26T08:39:48.441Z,10.98
2018-03-26T08:40:54.149Z,10.98
2018-03-26T08:41:59.868Z,10.95
2018-03-26T08:43:06.145Z,10.92
2018-03-26T08:44:11.865Z,10.94
2018-03-26T08:45:18.376Z,10.93
2018-03-26T08:46:23.769Z,10.88
2018-03-26T08:47:30.250Z,10.86
2018-03-26T08:48:35.990Z,10.85
2018-03-26T08:49:41.810Z,10.86
2018-03-26T08:50:47.746Z,10.85
2018-03-26T08:51:53.448Z,10.82
2018-03-26T08:52:59.165Z,10.84
2018-03-26T08:54:04.901Z,10.87
2018-03-26T08:55:10.620Z,10.85
2018-03-26T08:56:17.181Z,10.90
2018-03-26T08:57:23.037Z,10.94
2018-03-26T08:58:28.760Z,10.95
2018-03-26T08:59:35.244Z,10.96
2018-03-26T09:00:40.979Z,10.95
2018-03-26T09:01:46.724Z,10.93
2018-03-26T09:02:52.457Z,10.97
2018-03-26T09:03:58.204Z,10.97
2018-03-26T09:05:03.932Z,11.03
2018-03-26T09:06:10.229Z,11.07
2018-03-26T09:07:15.998Z,11.09
2018-03-26T09:08:23.427Z,11.11
2018-03-26T09:09:29.163Z,11.12
2018-03-26T09:10:34.904Z,11.13
2018-03-26T09:11:40.612Z,11.12
2018-03-26T09:12:46.157Z,11.12
2018-03-26T09:13:51.884Z,11.12
2018-03-26T09:14:57.592Z,11.07
2018-03-26T09:16:03.309Z,11.09
2018-03-26T09:17:09.022Z,11.08
2018-03-26T09:18:15.532Z,11.12
2018-03-26T09:19:21.274Z,11.15
2018-03-26T09:20:27.015Z,11.14
2018-03-26T09:21:32.741Z,11.15
2018-03-26T09:22:38.457Z,11.12
2018-03-26T09:23:44.200Z,11.09
2018-03-26T09:24:49.911Z,11.09
2018-03-26T09:25:55.645Z,11.01
2018-03-26T09:27:02.883Z,10.92
2018-03-26T09:28:08.589Z,10.91
2018-03-26T09:29:15.105Z,10.90
2018-03-26T09:30:20.828Z,10.87
2018-03-26T09:31:26.542Z,10.84
2018-03-26T09:32:33.020Z,10.80
2018-03-26T09:33:38.732Z,10.79
2018-03-26T09:34:44.469Z,10.80
2018-03-26T09:35:50.961Z,10.84
2018-03-26T09:36:56.682Z,10.87
2018-03-26T09:38:02.389Z,10.90
2018-03-26T09:39:08.552Z,10.92
2018-03-26T09:40:15.119Z,10.94
2018-03-26T09:41:21.608Z,10.95
2018-03-26T09:42:27.317Z,10.93
2018-03-26T09:43:33.791Z,10.89
2018-03-26T09:44:39.501Z,10.88
2018-03-26T09:45:46.022Z,10.90
2018-03-26T09:46:51.747Z,10.90
2018-03-26T09:47:57.470Z,10.89
2018-03-26T09:49:03.179Z,10.90
2018-03-26T09:50:08.694Z,10.88
2018-03-26T09:51:14.422Z,10.88
2018-03-26T09:52:20.207Z,10.85
2018-03-26T09:53:26.742Z,10.81
2018-03-26T09:54:32.618Z,10.77
2018-03-26T09:55:39.124Z,10.77
2018-03-26T09:56:44.871Z,10.75
2018-03-26T09:57:50.592Z,10.68
2018-03-26T09:58:56.429Z,10.65
2018-03-26T10:00:02.139Z,10.61
2018-03-26T10:01:14.061Z,10.64
2018-03-26T10:02:19.804Z,10.61
2018-03-26T10:03:25.529Z,10.64
2018-03-26T10:04:31.265Z,10.67
2018-03-26T10:05:37.729Z,10.67
2018-03-26T10:06:43.439Z,10.66
2018-03-26T10:07:49.160Z,10.66
2018-03-26T10:08:54.872Z,10.66
2018-03-26T10:10:00.583Z,10.64
2018-03-26T10:11:07.148Z,10.61
2018-03-26T10:12:12.875Z,10.57
2018-03-26T10:13:19.370Z,10.60
2018-03-26T10:14:25.081Z,10.61
2018-03-26T10:15:31.570Z,10.62
2018-03-26T10:16:37.288Z,10.61
2018-03-26T10:17:43.051Z,10.63
2018-03-26T10:18:48.798Z,10.62
2018-03-26T10:19:54.521Z,10.58
2018-03-26T10:21:00.289Z,10.61
2018-03-26T10:22:05.997Z,10.62
2018-03-26T10:23:11.714Z,10.65
2018-03-26T10:24:18.220Z,10.67
2018-03-26T10:25:23.932Z,10.68
2018-03-26T10:26:29.653Z,10.69
2018-03-26T10:27:36.216Z,10.67
2018-03-26T10:28:42.753Z,10.68
2018-03-26T10:29:48.661Z,10.68
2018-03-26T10:30:54.949Z,10.69
2018-03-26T10:32:00.657Z,10.70
2018-03-26T10:33:06.377Z,10.70
2018-03-26T10:34:12.116Z,10.68
2018-03-26T10:35:17.852Z,10.70
2018-03-26T10:36:23.556Z,10.69
2018-03-26T10:37:29.283Z,10.71
2018-03-26T10:38:35.030Z,10.73
2018-03-26T10:39:40.760Z,10.77
2018-03-26T10:40:46.488Z,10.85
2018-03-26T10:41:52.092Z,10.90
2018-03-26T10:42:58.031Z,10.94
2018-03-26T10:44:04.506Z,10.97
2018-03-26T10:45:10.234Z,10.98
2018-03-26T10:46:16.174Z,10.99
2018-03-26T10:47:22.697Z,11.00
2018-03-26T10:48:29.171Z,11.01
2018-03-26T10:49:34.896Z,11.01
2018-03-26T10:50:40.604Z,11.03
2018-03-26T10:51:46.337Z,11.04
2018-03-26T10:52:52.045Z,11.06
2018-03-26T10:53:58.531Z,11.10
2018-03-26T10:55:04.248Z,11.10
2018-03-26T10:56:10.733Z,11.09
2018-03-26T10:57:16.473Z,11.13
2018-03-26T10:58:22.193Z,11.17
2018-03-26T10:59:28.491Z,11.22
2018-03-26T11:00:34.230Z,11.26
2018-03-26T11:01:39.956Z,11.26
2018-03-26T11:02:45.689Z,11.26
2018-03-26T11:03:51.428Z,11.32
2018-03-26T11:04:57.144Z,11.38
2018-03-26T11:06:03.634Z,11.40
2018-03-26T11:07:09.365Z,11.42
2018-03-26T11:08:15.107Z,11.42
2018-03-26T11:09:20.639Z,11.44
2018-03-26T11:10:26.362Z,11.46
2018-03-26T11:11:32.864Z,11.46
2018-03-26T11:12:38.584Z,11.43
2018-03-26T11:13:44.356Z,11.41
2018-03-26T11:14:50.068Z,11.43
2018-03-26T11:15:55.795Z,11.40
2018-03-26T11:17:02.353Z,11.38
2018-03-26T11:18:08.574Z,11.37
2018-03-26T11:19:14.317Z,11.35
2018-03-26T11:20:20.049Z,11.38
2018-03-26T11:21:25.781Z,11.47
2018-03-26T11:22:31.511Z,11.52
2018-03-26T11:23:37.988Z,11.58
2018-03-26T11:24:43.724Z,11.62
2018-03-26T11:25:49.466Z,11.66
2018-03-26T11:26:55.184Z,11.67
2018-03-26T11:28:01.073Z,11.70
2018-03-26T11:29:06.950Z,11.69
2018-03-26T11:30:13.461Z,11.75
2018-03-26T11:31:19.191Z,11.78
2018-03-26T11:32:24.928Z,11.80
2018-03-26T11:33:30.652Z,11.86
2018-03-26T11:34:36.386Z,11.94
2018-03-26T11:35:42.132Z,12.04
2018-03-26T11:36:47.862Z,12.12
2018-03-26T11:37:53.586Z,12.14
2018-03-26T11:39:00.069Z,12.20
2018-03-26T11:40:05.212Z,12.30
2018-03-26T11:41:10.965Z,12.37
2018-03-26T11:42:16.681Z,12.42
2018-03-26T11:43:23.215Z,12.46
2018-03-26T11:44:28.960Z,12.45
2018-03-26T11:45:34.716Z,12.44
2018-03-26T11:46:40.468Z,12.49
2018-03-26T11:47:46.212Z,12.54
2018-03-26T11:48:52.035Z,12.63
2018-03-26T11:49:57.768Z,12.70
2018-03-26T11:51:03.489Z,12.78
2018-03-26T11:52:10.021Z,12.87
2018-03-26T11:53:15.764Z,12.94
2018-03-26T11:54:21.704Z,13.04
2018-03-26T11:55:27.425Z,13.14
2018-03-26T11:56:33.161Z,13.25
2018-03-26T11:57:38.753Z,13.40
2018-03-26T11:58:45.243Z,13.55
2018-03-26T11:59:50.964Z,13.67
2018-03-26T12:00:57.445Z,13.78
2018-03-26T12:02:03.199Z,13.84
2018-03-26T12:03:08.994Z,13.82
2018-03-26T12:04:14.896Z,13.90
2018-03-26T12:05:20.617Z,13.97
2018-03-26T12:06:26.353Z,14.05
2018-03-26T12:07:32.068Z,14.07
2018-03-26T12:08:38.578Z,14.06
2018-03-26T12:09:44.317Z,14.03
2018-03-26T12:10:50.040Z,14.02
2018-03-26T12:11:55.771Z,13.97
2018-03-26T12:13:01.522Z,13.93
2018-03-26T12:14:08.262Z,13.87
2018-03-26T12:15:14.758Z,13.82
2018-03-26T12:16:21.248Z,13.77
2018-03-26T12:17:26.978Z,13.77
2018-03-26T12:18:32.713Z,13.75
2018-03-26T12:19:55.273Z,13.65
2018-03-26T12:21:01.056Z,13.58
2018-03-26T12:22:07.806Z,13.49
2018-03-26T12:23:31.201Z,13.38
2018-03-26T12:24:53.776Z,13.19
2018-03-26T12:25:59.518Z,13.08
2018-03-26T12:27:06.011Z,12.96
2018-03-26T12:28:28.648Z,12.95
2018-03-26T12:29:51.502Z,12.91
2018-03-26T12:30:57.248Z,12.83
2018-03-26T12:32:02.989Z,12.86
2018-03-26T12:33:08.717Z,12.94
2018-03-26T12:34:31.354Z,13.04
2018-03-26T12:36:00.013Z,13.12
2018-03-26T12:37:06.521Z,13.20
2018-03-26T12:38:12.348Z,13.25
2018-03-26T12:39:18.279Z,13.30
2018-03-26T12:40:41.096Z,13.39
2018-03-26T12:41:46.865Z,13.48
2018-03-26T12:42:52.630Z,13.56
2018-03-26T12:43:58.373Z,13.59
2018-03-26T12:46:49.967Z,13.71
2018-03-26T12:47:55.708Z,13.73
2018-03-26T12:49:01.423Z,13.71
2018-03-26T12:50:07.909Z,13.73
2018-03-26T12:51:30.547Z,13.66
2018-03-26T12:52:42.084Z,13.66
2018-03-26T12:53:47.801Z,13.67
2018-03-26T12:54:53.529Z,13.77
2018-03-26T12:56:00.030Z,13.78
2018-03-26T12:57:23.388Z,13.74
2018-03-26T12:58:42.647Z,13.70
2018-03-26T12:59:49.160Z,13.71
2018-03-26T13:01:11.858Z,13.74
2018-03-26T13:02:28.488Z,13.74
2018-03-26T13:03:34.217Z,13.83
2018-03-26T13:04:39.969Z,13.88
2018-03-26T13:05:45.689Z,13.97
2018-03-26T13:06:51.418Z,14.09
2018-03-26T13:07:57.170Z,14.12
2018-03-26T13:09:02.930Z,14.22
2018-03-26T13:10:08.718Z,14.26
2018-03-26T13:11:14.451Z,14.26
2018-03-26T13:12:20.184Z,14.29
2018-03-26T13:13:26.672Z,14.35
2018-03-26T13:14:33.172Z,14.35
2018-03-26T13:15:38.911Z,14.38
2018-03-26T13:16:44.622Z,14.47
2018-03-26T13:17:51.115Z,14.52
2018-03-26T13:18:56.877Z,14.51
2018-03-26T13:20:02.602Z,14.44
2018-03-26T13:21:08.352Z,14.39
2018-03-26T13:22:14.074Z,14.32
2018-03-26T13:23:19.796Z,14.37
2018-03-26T13:24:25.519Z,14.41
2018-03-26T13:25:32.218Z,14.44
2018-03-26T13:26:37.970Z,14.37
2018-03-26T13:27:43.701Z,14.35
2018-03-26T13:28:50.435Z,14.28
2018-03-26T13:29:56.421Z,14.24
2018-03-26T13:31:02.174Z,14.19
2018-03-26T13:32:07.921Z,14.14
2018-03-26T13:33:13.655Z,14.07
2018-03-26T13:34:19.464Z,13.95
2018-03-26T13:35:25.185Z,13.78
2018-03-26T13:36:31.725Z,13.67
2018-03-26T13:37:37.474Z,13.57
2018-03-26T13:38:43.972Z,13.41
2018-03-26T13:39:49.698Z,13.33
2018-03-26T13:40:55.424Z,13.22
2018-03-26T13:42:02.005Z,13.12
2018-03-26T13:43:07.785Z,13.04
2018-03-26T13:44:13.654Z,12.93
2018-03-26T13:45:20.149Z,12.91
2018-03-26T13:46:25.545Z,12.85
2018-03-26T13:47:31.318Z,12.78
2018-03-26T13:48:37.058Z,12.69
2018-03-26T13:49:42.876Z,12.63
2018-03-26T13:50:49.211Z,12.55
2018-03-26T13:51:54.979Z,12.46
2018-03-26T13:53:01.473Z,12.49
2018-03-26T13:54:06.699Z,12.49
2018-03-26T13:55:13.184Z,12.52
2018-03-26T13:56:18.910Z,12.51
2018-03-26T13:57:24.678Z,12.57
2018-03-26T13:58:30.476Z,12.60
2018-03-26T13:59:36.224Z,12.66
2018-03-26T14:00:43.542Z,12.71
2018-03-26T14:01:49.290Z,12.77
2018-03-26T14:02:55.015Z,12.83
2018-03-26T14:04:01.652Z,12.88
2018-03-26T14:05:07.512Z,12.92
2018-03-26T14:06:13.499Z,12.99
2018-03-26T14:07:20.608Z,13.04
2018-03-26T14:08:43.044Z,13.12
2018-03-26T14:10:05.833Z,13.18
2018-03-26T14:11:28.420Z,13.22
2018-03-26T14:12:51.101Z,13.24
2018-03-26T14:14:13.574Z,13.30
2018-03-26T14:15:36.244Z,13.27
2018-03-26T14:16:58.826Z,13.31
2018-03-26T14:18:06.348Z,13.35
2018-03-26T14:19:12.078Z,13.40
2018-03-26T14:20:17.471Z,13.49
2018-03-26T14:21:23.977Z,13.58
2018-03-26T14:22:29.721Z,13.61
2018-03-26T14:23:35.466Z,13.63
2018-03-26T14:24:41.168Z,13.72
2018-03-26T14:25:47.654Z,13.75
2018-03-26T14:26:53.391Z,13.84
2018-03-26T14:27:59.919Z,13.86
2018-03-26T14:29:05.321Z,13.87
2018-03-26T14:30:11.041Z,13.90
2018-03-26T14:31:16.773Z,13.97